sensor_id;sensor_type;location;lat;lon;timestamp;P1;durP1;ratioP1;P2;durP2;ratioP2
77598;SDS011;66758;52.078;5.070;2024-02-16T00:00:00;4.72;;;2.40;;
77598;SDS011;66758;52.078;5.070;2024-02-16T00:02:26;6.37;;;2.30;;
77598;SDS011;66758;52.078;5.070;2024-02-16T00:04:51;4.33;;;2.30;;
77598;SDS011;66758;52.078;5.070;2024-02-16T00:07:17;6.13;;;2.83;;
77598;SDS011;66758;52.078;5.070;2024-02-16T00:09:42;4.97;;;2.40;;
77598;SDS011;66758;52.078;5.070;2024-02-16T00:12:07;4.60;;;2.10;;
77598;SDS011;66758;52.078;5.070;2024-02-16T00:14:33;6.10;;;2.10;;
77598;SDS011;66758;52.078;5.070;2024-02-16T00:16:58;5.88;;;2.72;;
77598;SDS011;66758;52.078;5.070;2024-02-16T00:19:24;6.33;;;2.87;;
77598;SDS011;66758;52.078;5.070;2024-02-16T00:21:50;5.33;;;2.50;;
77598;SDS011;66758;52.078;5.070;2024-02-16T00:24:16;6.17;;;3.00;;
77598;SDS011;66758;52.078;5.070;2024-02-16T00:26:41;4.93;;;2.58;;
77598;SDS011;66758;52.078;5.070;2024-02-16T00:29:08;5.53;;;2.90;;
77598;SDS011;66758;52.078;5.070;2024-02-16T00:31:34;5.88;;;2.60;;
77598;SDS011;66758;52.078;5.070;2024-02-16T00:34:00;5.00;;;2.43;;
77598;SDS011;66758;52.078;5.070;2024-02-16T00:36:28;4.13;;;2.45;;
77598;SDS011;66758;52.078;5.070;2024-02-16T00:38:55;4.57;;;2.50;;
77598;SDS011;66758;52.078;5.070;2024-02-16T00:41:21;6.32;;;2.53;;
77598;SDS011;66758;52.078;5.070;2024-02-16T00:43:46;5.57;;;2.63;;
77598;SDS011;66758;52.078;5.070;2024-02-16T00:46:12;6.40;;;2.45;;
77598;SDS011;66758;52.078;5.070;2024-02-16T00:48:37;5.03;;;2.40;;
77598;SDS011;66758;52.078;5.070;2024-02-16T00:51:02;5.17;;;2.63;;
77598;SDS011;66758;52.078;5.070;2024-02-16T00:53:28;4.90;;;2.50;;
77598;SDS011;66758;52.078;5.070;2024-02-16T00:55:53;3.77;;;2.33;;
77598;SDS011;66758;52.078;5.070;2024-02-16T00:58:19;4.90;;;2.40;;
77598;SDS011;66758;52.078;5.070;2024-02-16T01:00:44;6.60;;;2.87;;
77598;SDS011;66758;52.078;5.070;2024-02-16T01:03:10;7.30;;;2.70;;
77598;SDS011;66758;52.078;5.070;2024-02-16T01:05:35;5.67;;;2.50;;
77598;SDS011;66758;52.078;5.070;2024-02-16T01:08:01;4.53;;;2.60;;
77598;SDS011;66758;52.078;5.070;2024-02-16T01:10:26;5.20;;;2.97;;
77598;SDS011;66758;52.078;5.070;2024-02-16T01:12:51;4.50;;;2.70;;
77598;SDS011;66758;52.078;5.070;2024-02-16T01:15:17;6.25;;;2.70;;
77598;SDS011;66758;52.078;5.070;2024-02-16T01:17:43;6.70;;;2.43;;
77598;SDS011;66758;52.078;5.070;2024-02-16T01:20:08;4.63;;;2.40;;
77598;SDS011;66758;52.078;5.070;2024-02-16T01:22:37;5.03;;;2.60;;
77598;SDS011;66758;52.078;5.070;2024-02-16T01:25:03;5.25;;;2.20;;
77598;SDS011;66758;52.078;5.070;2024-02-16T01:27:28;5.20;;;2.73;;
77598;SDS011;66758;52.078;5.070;2024-02-16T01:29:53;5.40;;;2.70;;
77598;SDS011;66758;52.078;5.070;2024-02-16T01:32:19;5.53;;;2.83;;
77598;SDS011;66758;52.078;5.070;2024-02-16T01:34:44;5.63;;;3.30;;
77598;SDS011;66758;52.078;5.070;2024-02-16T01:37:11;4.65;;;2.55;;
77598;SDS011;66758;52.078;5.070;2024-02-16T01:39:37;5.13;;;2.60;;
77598;SDS011;66758;52.078;5.070;2024-02-16T01:42:02;5.47;;;2.30;;
77598;SDS011;66758;52.078;5.070;2024-02-16T01:44:27;5.37;;;2.30;;
77598;SDS011;66758;52.078;5.070;2024-02-16T01:46:53;4.30;;;2.30;;
77598;SDS011;66758;52.078;5.070;2024-02-16T01:49:18;6.67;;;2.73;;
77598;SDS011;66758;52.078;5.070;2024-02-16T01:51:45;4.43;;;2.50;;
77598;SDS011;66758;52.078;5.070;2024-02-16T01:54:11;5.47;;;2.65;;
77598;SDS011;66758;52.078;5.070;2024-02-16T01:56:37;5.05;;;2.50;;
77598;SDS011;66758;52.078;5.070;2024-02-16T01:59:02;4.37;;;2.37;;
77598;SDS011;66758;52.078;5.070;2024-02-16T02:01:28;5.87;;;2.83;;
77598;SDS011;66758;52.078;5.070;2024-02-16T02:03:53;5.00;;;2.40;;
77598;SDS011;66758;52.078;5.070;2024-02-16T02:06:18;4.82;;;2.53;;
77598;SDS011;66758;52.078;5.070;2024-02-16T02:08:44;5.03;;;2.33;;
77598;SDS011;66758;52.078;5.070;2024-02-16T02:11:09;5.43;;;2.60;;
77598;SDS011;66758;52.078;5.070;2024-02-16T02:13:34;5.73;;;2.87;;
77598;SDS011;66758;52.078;5.070;2024-02-16T02:16:00;5.50;;;2.20;;
77598;SDS011;66758;52.078;5.070;2024-02-16T02:18:25;7.68;;;2.70;;
77598;SDS011;66758;52.078;5.070;2024-02-16T02:20:51;5.70;;;3.00;;
77598;SDS011;66758;52.078;5.070;2024-02-16T02:23:18;4.70;;;2.58;;
77598;SDS011;66758;52.078;5.070;2024-02-16T02:25:44;4.88;;;2.55;;
77598;SDS011;66758;52.078;5.070;2024-02-16T02:28:11;6.03;;;2.80;;
77598;SDS011;66758;52.078;5.070;2024-02-16T02:30:36;6.93;;;2.75;;
77598;SDS011;66758;52.078;5.070;2024-02-16T02:33:03;5.32;;;2.80;;
77598;SDS011;66758;52.078;5.070;2024-02-16T02:35:28;6.20;;;2.77;;
77598;SDS011;66758;52.078;5.070;2024-02-16T02:37:53;5.27;;;2.60;;
77598;SDS011;66758;52.078;5.070;2024-02-16T02:40:19;5.90;;;2.33;;
77598;SDS011;66758;52.078;5.070;2024-02-16T02:42:44;4.50;;;2.53;;
77598;SDS011;66758;52.078;5.070;2024-02-16T02:45:11;4.63;;;2.67;;
77598;SDS011;66758;52.078;5.070;2024-02-16T02:47:36;4.70;;;2.80;;
77598;SDS011;66758;52.078;5.070;2024-02-16T02:50:02;4.55;;;2.70;;
77598;SDS011;66758;52.078;5.070;2024-02-16T02:52:27;5.53;;;2.20;;
77598;SDS011;66758;52.078;5.070;2024-02-16T02:54:53;6.40;;;2.73;;
77598;SDS011;66758;52.078;5.070;2024-02-16T02:57:18;5.32;;;2.60;;
77598;SDS011;66758;52.078;5.070;2024-02-16T02:59:43;4.07;;;2.40;;
77598;SDS011;66758;52.078;5.070;2024-02-16T03:02:10;6.90;;;2.90;;
77598;SDS011;66758;52.078;5.070;2024-02-16T03:04:35;5.53;;;2.55;;
77598;SDS011;66758;52.078;5.070;2024-02-16T03:07:01;5.67;;;2.43;;
77598;SDS011;66758;52.078;5.070;2024-02-16T03:09:26;7.07;;;2.63;;
77598;SDS011;66758;52.078;5.070;2024-02-16T03:11:51;5.10;;;2.27;;
77598;SDS011;66758;52.078;5.070;2024-02-16T03:14:19;3.65;;;2.22;;
77598;SDS011;66758;52.078;5.070;2024-02-16T03:16:44;4.60;;;2.27;;
77598;SDS011;66758;52.078;5.070;2024-02-16T03:19:09;5.10;;;2.60;;
77598;SDS011;66758;52.078;5.070;2024-02-16T03:21:35;6.90;;;2.90;;
77598;SDS011;66758;52.078;5.070;2024-02-16T03:24:01;5.30;;;2.60;;
77598;SDS011;66758;52.078;5.070;2024-02-16T03:26:26;7.73;;;2.50;;
77598;SDS011;66758;52.078;5.070;2024-02-16T03:28:51;6.07;;;2.77;;
77598;SDS011;66758;52.078;5.070;2024-02-16T03:31:18;7.83;;;2.67;;
77598;SDS011;66758;52.078;5.070;2024-02-16T03:33:44;5.25;;;2.60;;
77598;SDS011;66758;52.078;5.070;2024-02-16T03:36:10;5.45;;;2.67;;
77598;SDS011;66758;52.078;5.070;2024-02-16T03:38:40;4.83;;;2.50;;
77598;SDS011;66758;52.078;5.070;2024-02-16T03:41:05;6.07;;;2.25;;
77598;SDS011;66758;52.078;5.070;2024-02-16T03:43:31;4.57;;;2.50;;
77598;SDS011;66758;52.078;5.070;2024-02-16T03:45:56;5.17;;;2.43;;
77598;SDS011;66758;52.078;5.070;2024-02-16T03:48:21;5.43;;;2.70;;
77598;SDS011;66758;52.078;5.070;2024-02-16T03:50:47;5.27;;;2.73;;
77598;SDS011;66758;52.078;5.070;2024-02-16T03:53:12;6.03;;;3.00;;
77598;SDS011;66758;52.078;5.070;2024-02-16T03:55:38;5.40;;;2.70;;
77598;SDS011;66758;52.078;5.070;2024-02-16T03:58:03;5.30;;;2.60;;
77598;SDS011;66758;52.078;5.070;2024-02-16T04:00:29;5.37;;;2.77;;
77598;SDS011;66758;52.078;5.070;2024-02-16T04:02:54;4.57;;;2.63;;
77598;SDS011;66758;52.078;5.070;2024-02-16T04:05:19;5.07;;;2.57;;
77598;SDS011;66758;52.078;5.070;2024-02-16T04:07:44;4.90;;;2.67;;
77598;SDS011;66758;52.078;5.070;2024-02-16T04:10:10;6.53;;;2.80;;
77598;SDS011;66758;52.078;5.070;2024-02-16T04:12:35;6.67;;;2.83;;
77598;SDS011;66758;52.078;5.070;2024-02-16T04:15:01;5.13;;;2.60;;
77598;SDS011;66758;52.078;5.070;2024-02-16T04:17:28;7.10;;;3.05;;
77598;SDS011;66758;52.078;5.070;2024-02-16T04:19:53;6.85;;;3.17;;
77598;SDS011;66758;52.078;5.070;2024-02-16T04:22:18;4.80;;;2.67;;
77598;SDS011;66758;52.078;5.070;2024-02-16T04:24:44;4.73;;;2.63;;
77598;SDS011;66758;52.078;5.070;2024-02-16T04:27:09;4.37;;;2.70;;
77598;SDS011;66758;52.078;5.070;2024-02-16T04:29:34;4.63;;;2.67;;
77598;SDS011;66758;52.078;5.070;2024-02-16T04:32:00;5.83;;;2.63;;
77598;SDS011;66758;52.078;5.070;2024-02-16T04:34:25;5.93;;;3.07;;
77598;SDS011;66758;52.078;5.070;2024-02-16T04:36:52;5.93;;;3.30;;
77598;SDS011;66758;52.078;5.070;2024-02-16T04:39:17;5.55;;;2.90;;
77598;SDS011;66758;52.078;5.070;2024-02-16T04:41:43;7.25;;;3.03;;
77598;SDS011;66758;52.078;5.070;2024-02-16T04:44:08;4.33;;;3.00;;
77598;SDS011;66758;52.078;5.070;2024-02-16T04:46:33;9.17;;;3.20;;
77598;SDS011;66758;52.078;5.070;2024-02-16T04:48:59;4.83;;;2.70;;
77598;SDS011;66758;52.078;5.070;2024-02-16T04:51:25;4.70;;;2.57;;
77598;SDS011;66758;52.078;5.070;2024-02-16T04:53:51;5.57;;;3.00;;
77598;SDS011;66758;52.078;5.070;2024-02-16T04:56:16;4.83;;;2.73;;
77598;SDS011;66758;52.078;5.070;2024-02-16T04:58:41;5.70;;;2.43;;
77598;SDS011;66758;52.078;5.070;2024-02-16T05:01:07;5.43;;;2.67;;
77598;SDS011;66758;52.078;5.070;2024-02-16T05:03:32;4.53;;;2.63;;
77598;SDS011;66758;52.078;5.070;2024-02-16T05:05:57;5.13;;;2.63;;
77598;SDS011;66758;52.078;5.070;2024-02-16T05:08:23;5.80;;;2.90;;
77598;SDS011;66758;52.078;5.070;2024-02-16T05:10:48;6.27;;;3.10;;
77598;SDS011;66758;52.078;5.070;2024-02-16T05:13:13;6.43;;;2.73;;
77598;SDS011;66758;52.078;5.070;2024-02-16T05:15:39;7.15;;;2.70;;
77598;SDS011;66758;52.078;5.070;2024-02-16T05:18:04;6.83;;;3.13;;
77598;SDS011;66758;52.078;5.070;2024-02-16T05:20:30;5.57;;;3.37;;
77598;SDS011;66758;52.078;5.070;2024-02-16T05:22:55;4.70;;;2.47;;
77598;SDS011;66758;52.078;5.070;2024-02-16T05:25:21;7.18;;;3.03;;
77598;SDS011;66758;52.078;5.070;2024-02-16T05:27:47;4.13;;;2.57;;
77598;SDS011;66758;52.078;5.070;2024-02-16T05:30:15;7.68;;;3.05;;
77598;SDS011;66758;52.078;5.070;2024-02-16T05:32:41;6.25;;;2.95;;
77598;SDS011;66758;52.078;5.070;2024-02-16T05:35:07;6.00;;;2.70;;
77598;SDS011;66758;52.078;5.070;2024-02-16T05:37:42;6.38;;;3.00;;
77598;SDS011;66758;52.078;5.070;2024-02-16T05:40:13;5.70;;;3.08;;
77598;SDS011;66758;52.078;5.070;2024-02-16T05:42:46;4.57;;;2.75;;
77598;SDS011;66758;52.078;5.070;2024-02-16T05:45:12;7.43;;;2.70;;
77598;SDS011;66758;52.078;5.070;2024-02-16T05:47:37;4.73;;;2.60;;
77598;SDS011;66758;52.078;5.070;2024-02-16T05:50:04;6.15;;;2.83;;
77598;SDS011;66758;52.078;5.070;2024-02-16T05:52:30;6.05;;;3.22;;
77598;SDS011;66758;52.078;5.070;2024-02-16T05:54:55;6.27;;;2.80;;
77598;SDS011;66758;52.078;5.070;2024-02-16T05:57:20;5.33;;;2.90;;
77598;SDS011;66758;52.078;5.070;2024-02-16T05:59:46;6.37;;;3.10;;
77598;SDS011;66758;52.078;5.070;2024-02-16T06:02:11;5.00;;;2.78;;
77598;SDS011;66758;52.078;5.070;2024-02-16T06:04:38;6.03;;;3.20;;
77598;SDS011;66758;52.078;5.070;2024-02-16T06:07:03;5.88;;;3.10;;
77598;SDS011;66758;52.078;5.070;2024-02-16T06:09:29;5.30;;;2.63;;
77598;SDS011;66758;52.078;5.070;2024-02-16T06:12:02;5.73;;;3.40;;
77598;SDS011;66758;52.078;5.070;2024-02-16T06:14:32;6.68;;;2.97;;
77598;SDS011;66758;52.078;5.070;2024-02-16T06:16:58;7.35;;;3.20;;
77598;SDS011;66758;52.078;5.070;2024-02-16T06:19:24;7.03;;;3.10;;
77598;SDS011;66758;52.078;5.070;2024-02-16T06:21:49;8.27;;;3.10;;
77598;SDS011;66758;52.078;5.070;2024-02-16T06:24:14;5.07;;;3.00;;
77598;SDS011;66758;52.078;5.070;2024-02-16T06:26:40;5.82;;;2.90;;
77598;SDS011;66758;52.078;5.070;2024-02-16T06:29:05;6.43;;;2.87;;
77598;SDS011;66758;52.078;5.070;2024-02-16T06:31:31;8.87;;;3.37;;
77598;SDS011;66758;52.078;5.070;2024-02-16T06:33:56;5.40;;;3.30;;
77598;SDS011;66758;52.078;5.070;2024-02-16T06:36:22;6.37;;;3.40;;
77598;SDS011;66758;52.078;5.070;2024-02-16T06:38:47;8.23;;;3.53;;
77598;SDS011;66758;52.078;5.070;2024-02-16T06:41:13;5.63;;;2.90;;
77598;SDS011;66758;52.078;5.070;2024-02-16T06:43:38;7.90;;;3.47;;
77598;SDS011;66758;52.078;5.070;2024-02-16T06:46:03;6.93;;;3.43;;
77598;SDS011;66758;52.078;5.070;2024-02-16T06:48:30;5.47;;;3.70;;
77598;SDS011;66758;52.078;5.070;2024-02-16T06:50:55;5.67;;;3.43;;
77598;SDS011;66758;52.078;5.070;2024-02-16T06:53:20;6.37;;;3.17;;
77598;SDS011;66758;52.078;5.070;2024-02-16T06:55:46;6.73;;;3.10;;
77598;SDS011;66758;52.078;5.070;2024-02-16T06:58:11;6.93;;;3.20;;
77598;SDS011;66758;52.078;5.070;2024-02-16T07:00:36;8.93;;;3.70;;
77598;SDS011;66758;52.078;5.070;2024-02-16T07:03:02;7.20;;;3.60;;
77598;SDS011;66758;52.078;5.070;2024-02-16T07:05:27;6.30;;;3.70;;
77598;SDS011;66758;52.078;5.070;2024-02-16T07:07:53;6.47;;;3.40;;
77598;SDS011;66758;52.078;5.070;2024-02-16T07:10:19;5.23;;;3.30;;
77598;SDS011;66758;52.078;5.070;2024-02-16T07:12:44;8.13;;;3.83;;
77598;SDS011;66758;52.078;5.070;2024-02-16T07:15:10;8.68;;;3.45;;
77598;SDS011;66758;52.078;5.070;2024-02-16T07:17:37;7.55;;;3.78;;
77598;SDS011;66758;52.078;5.070;2024-02-16T07:20:03;7.57;;;3.53;;
77598;SDS011;66758;52.078;5.070;2024-02-16T07:22:29;7.25;;;3.92;;
77598;SDS011;66758;52.078;5.070;2024-02-16T07:24:54;6.77;;;3.50;;
77598;SDS011;66758;52.078;5.070;2024-02-16T07:27:19;6.87;;;3.93;;
77598;SDS011;66758;52.078;5.070;2024-02-16T07:29:45;8.00;;;3.80;;
77598;SDS011;66758;52.078;5.070;2024-02-16T07:32:10;5.83;;;3.70;;
77598;SDS011;66758;52.078;5.070;2024-02-16T07:34:35;7.50;;;3.70;;
77598;SDS011;66758;52.078;5.070;2024-02-16T07:37:00;7.07;;;3.40;;
77598;SDS011;66758;52.078;5.070;2024-02-16T07:39:26;8.07;;;3.77;;
77598;SDS011;66758;52.078;5.070;2024-02-16T07:41:51;6.03;;;3.60;;
77598;SDS011;66758;52.078;5.070;2024-02-16T07:44:16;6.63;;;3.50;;
77598;SDS011;66758;52.078;5.070;2024-02-16T07:46:42;6.20;;;3.97;;
77598;SDS011;66758;52.078;5.070;2024-02-16T07:49:10;8.05;;;4.32;;
77598;SDS011;66758;52.078;5.070;2024-02-16T07:51:36;7.93;;;3.73;;
77598;SDS011;66758;52.078;5.070;2024-02-16T07:54:02;10.05;;;3.85;;
77598;SDS011;66758;52.078;5.070;2024-02-16T07:56:28;7.80;;;3.75;;
77598;SDS011;66758;52.078;5.070;2024-02-16T07:58:55;7.60;;;3.80;;
77598;SDS011;66758;52.078;5.070;2024-02-16T08:01:20;8.03;;;4.63;;
77598;SDS011;66758;52.078;5.070;2024-02-16T08:03:46;8.70;;;3.80;;
77598;SDS011;66758;52.078;5.070;2024-02-16T08:06:11;6.47;;;4.10;;
77598;SDS011;66758;52.078;5.070;2024-02-16T08:08:37;7.05;;;4.03;;
77598;SDS011;66758;52.078;5.070;2024-02-16T08:11:02;11.17;;;4.37;;
77598;SDS011;66758;52.078;5.070;2024-02-16T08:13:28;7.77;;;4.53;;
77598;SDS011;66758;52.078;5.070;2024-02-16T08:15:53;7.78;;;4.03;;
77598;SDS011;66758;52.078;5.070;2024-02-16T08:18:20;12.55;;;4.45;;
77598;SDS011;66758;52.078;5.070;2024-02-16T08:20:45;9.47;;;3.87;;
77598;SDS011;66758;52.078;5.070;2024-02-16T08:23:10;7.87;;;3.83;;
77598;SDS011;66758;52.078;5.070;2024-02-16T08:25:36;8.20;;;4.17;;
77598;SDS011;66758;52.078;5.070;2024-02-16T08:28:01;7.80;;;4.00;;
77598;SDS011;66758;52.078;5.070;2024-02-16T08:30:27;10.88;;;4.20;;
77598;SDS011;66758;52.078;5.070;2024-02-16T08:32:52;6.37;;;4.03;;
77598;SDS011;66758;52.078;5.070;2024-02-16T08:35:18;11.88;;;4.70;;
77598;SDS011;66758;52.078;5.070;2024-02-16T08:37:44;8.18;;;4.60;;
77598;SDS011;66758;52.078;5.070;2024-02-16T08:40:12;8.57;;;4.10;;
77598;SDS011;66758;52.078;5.070;2024-02-16T08:42:39;7.03;;;4.90;;
77598;SDS011;66758;52.078;5.070;2024-02-16T08:45:05;9.20;;;4.50;;
77598;SDS011;66758;52.078;5.070;2024-02-16T08:47:30;10.63;;;4.43;;
77598;SDS011;66758;52.078;5.070;2024-02-16T08:49:55;6.63;;;4.20;;
77598;SDS011;66758;52.078;5.070;2024-02-16T08:52:21;10.70;;;4.70;;
77598;SDS011;66758;52.078;5.070;2024-02-16T08:54:46;10.13;;;4.57;;
77598;SDS011;66758;52.078;5.070;2024-02-16T08:57:12;10.13;;;4.90;;
77598;SDS011;66758;52.078;5.070;2024-02-16T08:59:37;9.83;;;4.83;;
77598;SDS011;66758;52.078;5.070;2024-02-16T09:02:03;10.73;;;4.87;;
77598;SDS011;66758;52.078;5.070;2024-02-16T09:04:28;10.93;;;5.63;;
77598;SDS011;66758;52.078;5.070;2024-02-16T09:06:54;8.70;;;4.60;;
77598;SDS011;66758;52.078;5.070;2024-02-16T09:09:19;12.27;;;5.40;;
77598;SDS011;66758;52.078;5.070;2024-02-16T09:11:44;8.93;;;4.83;;
77598;SDS011;66758;52.078;5.070;2024-02-16T09:14:10;9.93;;;5.00;;
77598;SDS011;66758;52.078;5.070;2024-02-16T09:16:35;9.57;;;5.00;;
77598;SDS011;66758;52.078;5.070;2024-02-16T09:19:01;6.77;;;4.53;;
77598;SDS011;66758;52.078;5.070;2024-02-16T09:21:27;8.45;;;4.28;;
77598;SDS011;66758;52.078;5.070;2024-02-16T09:23:54;7.28;;;4.53;;
77598;SDS011;66758;52.078;5.070;2024-02-16T09:26:23;8.30;;;4.75;;
77598;SDS011;66758;52.078;5.070;2024-02-16T09:28:50;10.20;;;4.87;;
77598;SDS011;66758;52.078;5.070;2024-02-16T09:31:15;10.07;;;4.90;;
77598;SDS011;66758;52.078;5.070;2024-02-16T09:33:40;8.82;;;5.20;;
77598;SDS011;66758;52.078;5.070;2024-02-16T09:36:06;8.67;;;4.73;;
77598;SDS011;66758;52.078;5.070;2024-02-16T09:38:31;9.20;;;4.70;;
77598;SDS011;66758;52.078;5.070;2024-02-16T09:40:57;11.83;;;5.33;;
77598;SDS011;66758;52.078;5.070;2024-02-16T09:43:23;10.13;;;4.83;;
77598;SDS011;66758;52.078;5.070;2024-02-16T09:45:52;9.57;;;4.80;;
77598;SDS011;66758;52.078;5.070;2024-02-16T09:48:17;9.07;;;5.20;;
77598;SDS011;66758;52.078;5.070;2024-02-16T09:50:42;9.25;;;5.22;;
77598;SDS011;66758;52.078;5.070;2024-02-16T09:53:07;9.70;;;4.97;;
77598;SDS011;66758;52.078;5.070;2024-02-16T09:55:34;8.33;;;4.53;;
77598;SDS011;66758;52.078;5.070;2024-02-16T09:58:00;10.15;;;5.35;;
77598;SDS011;66758;52.078;5.070;2024-02-16T10:00:25;8.77;;;5.13;;
77598;SDS011;66758;52.078;5.070;2024-02-16T10:02:51;9.70;;;5.37;;
77598;SDS011;66758;52.078;5.070;2024-02-16T10:05:16;11.07;;;5.43;;
77598;SDS011;66758;52.078;5.070;2024-02-16T10:07:42;9.43;;;5.50;;
77598;SDS011;66758;52.078;5.070;2024-02-16T10:10:21;10.57;;;5.70;;
77598;SDS011;66758;52.078;5.070;2024-02-16T10:12:47;13.83;;;6.13;;
77598;SDS011;66758;52.078;5.070;2024-02-16T10:15:18;12.90;;;5.95;;
77598;SDS011;66758;52.078;5.070;2024-02-16T10:17:44;10.25;;;5.70;;
77598;SDS011;66758;52.078;5.070;2024-02-16T10:20:09;10.77;;;5.53;;
77598;SDS011;66758;52.078;5.070;2024-02-16T10:22:36;11.70;;;6.75;;
77598;SDS011;66758;52.078;5.070;2024-02-16T10:25:08;13.30;;;6.70;;
77598;SDS011;66758;52.078;5.070;2024-02-16T10:27:36;14.70;;;6.63;;
77598;SDS011;66758;52.078;5.070;2024-02-16T10:30:02;11.80;;;7.50;;
77598;SDS011;66758;52.078;5.070;2024-02-16T10:32:28;14.07;;;7.22;;
77598;SDS011;66758;52.078;5.070;2024-02-16T10:34:53;14.30;;;7.37;;
77598;SDS011;66758;52.078;5.070;2024-02-16T10:37:19;13.10;;;7.83;;
77598;SDS011;66758;52.078;5.070;2024-02-16T10:39:44;15.80;;;8.47;;
77598;SDS011;66758;52.078;5.070;2024-02-16T10:42:10;20.17;;;9.53;;
77598;SDS011;66758;52.078;5.070;2024-02-16T10:44:36;18.35;;;11.13;;
77598;SDS011;66758;52.078;5.070;2024-02-16T10:47:02;21.57;;;8.93;;
77598;SDS011;66758;52.078;5.070;2024-02-16T10:49:27;22.60;;;11.55;;
77598;SDS011;66758;52.078;5.070;2024-02-16T10:51:54;25.33;;;12.00;;
77598;SDS011;66758;52.078;5.070;2024-02-16T10:54:25;21.73;;;11.85;;
77598;SDS011;66758;52.078;5.070;2024-02-16T10:56:53;22.07;;;11.93;;
77598;SDS011;66758;52.078;5.070;2024-02-16T10:59:19;23.00;;;11.57;;
77598;SDS011;66758;52.078;5.070;2024-02-16T11:01:44;24.85;;;13.00;;
77598;SDS011;66758;52.078;5.070;2024-02-16T11:04:19;21.93;;;12.63;;
77598;SDS011;66758;52.078;5.070;2024-02-16T11:06:52;23.45;;;11.73;;
77598;SDS011;66758;52.078;5.070;2024-02-16T11:09:25;25.90;;;11.00;;
77598;SDS011;66758;52.078;5.070;2024-02-16T11:11:53;21.15;;;11.38;;
77598;SDS011;66758;52.078;5.070;2024-02-16T11:14:20;25.43;;;11.07;;
77598;SDS011;66758;52.078;5.070;2024-02-16T11:16:46;21.83;;;10.57;;
77598;SDS011;66758;52.078;5.070;2024-02-16T11:19:13;21.13;;;10.70;;
77598;SDS011;66758;52.078;5.070;2024-02-16T11:21:54;20.08;;;10.48;;
77598;SDS011;66758;52.078;5.070;2024-02-16T11:24:19;19.80;;;9.70;;
77598;SDS011;66758;52.078;5.070;2024-02-16T11:26:51;17.83;;;9.32;;
77598;SDS011;66758;52.078;5.070;2024-02-16T11:29:17;19.92;;;8.98;;
77598;SDS011;66758;52.078;5.070;2024-02-16T11:31:43;19.37;;;9.10;;
77598;SDS011;66758;52.078;5.070;2024-02-16T11:34:09;15.90;;;8.50;;
77598;SDS011;66758;52.078;5.070;2024-02-16T11:36:34;16.23;;;8.63;;
77598;SDS011;66758;52.078;5.070;2024-02-16T11:39:00;15.95;;;8.30;;
77598;SDS011;66758;52.078;5.070;2024-02-16T11:41:27;18.77;;;8.50;;
77598;SDS011;66758;52.078;5.070;2024-02-16T11:43:58;18.03;;;9.10;;
77598;SDS011;66758;52.078;5.070;2024-02-16T11:46:23;17.08;;;9.45;;
77598;SDS011;66758;52.078;5.070;2024-02-16T11:48:50;16.60;;;9.17;;
77598;SDS011;66758;52.078;5.070;2024-02-16T11:51:15;19.63;;;8.63;;
77598;SDS011;66758;52.078;5.070;2024-02-16T11:53:42;21.07;;;11.10;;
77598;SDS011;66758;52.078;5.070;2024-02-16T11:56:09;17.10;;;9.27;;
77598;SDS011;66758;52.078;5.070;2024-02-16T11:58:34;18.07;;;9.47;;
77598;SDS011;66758;52.078;5.070;2024-02-16T12:00:59;15.32;;;8.30;;
77598;SDS011;66758;52.078;5.070;2024-02-16T12:03:25;15.23;;;7.87;;
77598;SDS011;66758;52.078;5.070;2024-02-16T12:05:52;11.80;;;6.78;;
77598;SDS011;66758;52.078;5.070;2024-02-16T12:08:18;13.23;;;6.47;;
77598;SDS011;66758;52.078;5.070;2024-02-16T12:10:44;11.93;;;6.28;;
77598;SDS011;66758;52.078;5.070;2024-02-16T12:13:09;10.30;;;5.40;;
77598;SDS011;66758;52.078;5.070;2024-02-16T12:15:37;10.45;;;5.90;;
77598;SDS011;66758;52.078;5.070;2024-02-16T12:18:03;8.68;;;4.00;;
77598;SDS011;66758;52.078;5.070;2024-02-16T12:20:29;7.83;;;4.63;;
77598;SDS011;66758;52.078;5.070;2024-02-16T12:22:54;8.02;;;4.57;;
77598;SDS011;66758;52.078;5.070;2024-02-16T12:27:57;7.22;;;4.47;;
77598;SDS011;66758;52.078;5.070;2024-02-16T12:33:26;6.40;;;3.93;;
77598;SDS011;66758;52.078;5.070;2024-02-16T12:35:53;9.43;;;4.72;;
77598;SDS011;66758;52.078;5.070;2024-02-16T12:38:28;7.78;;;4.50;;
77598;SDS011;66758;52.078;5.070;2024-02-16T12:40:55;8.50;;;4.25;;
77598;SDS011;66758;52.078;5.070;2024-02-16T12:43:21;8.80;;;4.77;;
77598;SDS011;66758;52.078;5.070;2024-02-16T12:48:49;9.07;;;5.37;;
77598;SDS011;66758;52.078;5.070;2024-02-16T12:51:14;8.60;;;4.23;;
77598;SDS011;66758;52.078;5.070;2024-02-16T12:53:40;7.30;;;4.00;;
77598;SDS011;66758;52.078;5.070;2024-02-16T12:56:07;7.07;;;3.58;;
77598;SDS011;66758;52.078;5.070;2024-02-16T12:58:33;5.90;;;3.53;;
77598;SDS011;66758;52.078;5.070;2024-02-16T13:00:58;6.10;;;4.20;;
77598;SDS011;66758;52.078;5.070;2024-02-16T13:03:24;6.97;;;3.53;;
77598;SDS011;66758;52.078;5.070;2024-02-16T13:05:49;6.17;;;3.10;;
77598;SDS011;66758;52.078;5.070;2024-02-16T13:08:14;6.30;;;3.13;;
77598;SDS011;66758;52.078;5.070;2024-02-16T13:10:40;7.20;;;3.23;;
77598;SDS011;66758;52.078;5.070;2024-02-16T13:13:06;7.37;;;3.40;;
77598;SDS011;66758;52.078;5.070;2024-02-16T13:15:31;6.18;;;3.10;;
77598;SDS011;66758;52.078;5.070;2024-02-16T13:17:57;5.97;;;2.80;;
77598;SDS011;66758;52.078;5.070;2024-02-16T13:20:24;6.18;;;3.42;;
77598;SDS011;66758;52.078;5.070;2024-02-16T13:22:50;6.03;;;3.17;;
77598;SDS011;66758;52.078;5.070;2024-02-16T13:25:15;6.23;;;3.00;;
77598;SDS011;66758;52.078;5.070;2024-02-16T13:27:41;7.35;;;3.17;;
77598;SDS011;66758;52.078;5.070;2024-02-16T13:30:07;7.20;;;3.93;;
77598;SDS011;66758;52.078;5.070;2024-02-16T13:32:33;8.88;;;4.07;;
77598;SDS011;66758;52.078;5.070;2024-02-16T13:35:01;7.53;;;3.58;;
77598;SDS011;66758;52.078;5.070;2024-02-16T13:37:28;8.43;;;4.45;;
77598;SDS011;66758;52.078;5.070;2024-02-16T13:39:53;11.10;;;5.40;;
77598;SDS011;66758;52.078;5.070;2024-02-16T13:42:18;11.00;;;5.13;;
77598;SDS011;66758;52.078;5.070;2024-02-16T13:44:44;15.48;;;5.25;;
77598;SDS011;66758;52.078;5.070;2024-02-16T13:47:10;11.67;;;6.77;;
77598;SDS011;66758;52.078;5.070;2024-02-16T13:49:35;17.73;;;7.10;;
77598;SDS011;66758;52.078;5.070;2024-02-16T13:52:00;11.77;;;6.23;;
77598;SDS011;66758;52.078;5.070;2024-02-16T13:54:26;13.95;;;6.68;;
77598;SDS011;66758;52.078;5.070;2024-02-16T13:56:51;10.60;;;5.33;;
77598;SDS011;66758;52.078;5.070;2024-02-16T13:59:17;11.37;;;6.57;;
77598;SDS011;66758;52.078;5.070;2024-02-16T14:01:42;12.03;;;6.33;;
77598;SDS011;66758;52.078;5.070;2024-02-16T14:04:07;12.38;;;7.65;;
77598;SDS011;66758;52.078;5.070;2024-02-16T14:06:33;12.03;;;7.13;;
77598;SDS011;66758;52.078;5.070;2024-02-16T14:09:00;10.07;;;6.75;;
77598;SDS011;66758;52.078;5.070;2024-02-16T14:11:26;11.40;;;6.37;;
77598;SDS011;66758;52.078;5.070;2024-02-16T14:13:51;13.77;;;7.00;;
77598;SDS011;66758;52.078;5.070;2024-02-16T14:16:17;13.60;;;6.65;;
77598;SDS011;66758;52.078;5.070;2024-02-16T14:18:43;15.30;;;7.22;;
77598;SDS011;66758;52.078;5.070;2024-02-16T14:21:08;15.70;;;7.67;;
77598;SDS011;66758;52.078;5.070;2024-02-16T14:23:33;13.07;;;7.00;;
77598;SDS011;66758;52.078;5.070;2024-02-16T14:25:59;15.57;;;6.90;;
77598;SDS011;66758;52.078;5.070;2024-02-16T14:28:25;11.25;;;6.95;;
77598;SDS011;66758;52.078;5.070;2024-02-16T14:30:50;10.30;;;6.43;;
77598;SDS011;66758;52.078;5.070;2024-02-16T14:33:16;13.20;;;7.33;;
77598;SDS011;66758;52.078;5.070;2024-02-16T14:35:42;9.73;;;5.80;;
77598;SDS011;66758;52.078;5.070;2024-02-16T14:38:07;12.55;;;7.35;;
77598;SDS011;66758;52.078;5.070;2024-02-16T14:40:33;11.40;;;6.17;;
77598;SDS011;66758;52.078;5.070;2024-02-16T14:42:58;11.77;;;7.53;;